Time;durP1;ratioP1;P1;durP2;ratioP2;P2;SDS_P1;SDS_P2;PMS_P1;PMS_P2;Temp;Humidity;BMP_temperature;BMP_pressure;BME280_temperature;BME280_humidity;BME280_pressure;Samples;Min_cycle;Max_cycle;Signal;HPM_P1;HPM_P2
2022/05/04 00:01:46;;;;;;;9.80;2.70;;;8.10;99.90;;;;;;5046359;28;20059;-35
2022/05/04 00:04:12;;;;;;;11.97;2.37;;;8.10;99.90;;;;;;5040240;28;20420;-35
2022/05/04 00:06:38;;;;;;;10.80;2.60;;;8.10;99.90;;;;;;5029882;28;20032;-35
2022/05/04 00:09:04;;;;;;;11.40;2.60;;;8.10;99.90;;;;;;5042714;28;20605;-35
2022/05/04 00:11:30;;;;;;;9.83;2.40;;;8.10;99.90;;;;;;5046454;28;20510;-35
2022/05/04 00:13:55;;;;;;;10.93;2.43;;;8.00;99.90;;;;;;5045264;28;20049;-35
2022/05/04 00:16:21;;;;;;;6.20;2.07;;;8.00;99.90;;;;;;5034498;28;20134;-35
2022/05/04 00:18:47;;;;;;;12.30;2.53;;;8.00;99.90;;;;;;5042001;28;20075;-35
2022/05/04 00:21:13;;;;;;;12.10;2.27;;;8.10;99.90;;;;;;5046083;28;20115;-35
2022/05/04 00:23:38;;;;;;;13.40;2.60;;;8.10;99.90;;;;;;5035668;28;20056;-35
2022/05/04 00:26:04;;;;;;;8.90;2.10;;;8.10;99.90;;;;;;5038206;28;20040;-35
2022/05/04 00:28:30;;;;;;;11.80;2.43;;;8.10;99.90;;;;;;5030733;28;20063;-35
2022/05/04 00:30:56;;;;;;;15.00;3.10;;;8.10;99.90;;;;;;5037011;28;20519;-35
2022/05/04 00:33:22;;;;;;;11.23;2.03;;;8.20;99.90;;;;;;5045817;28;20044;-35
2022/05/04 00:35:47;;;;;;;13.17;2.40;;;8.10;99.90;;;;;;5045876;28;20444;-35
2022/05/04 00:38:13;;;;;;;7.67;2.20;;;8.10;99.90;;;;;;5031843;28;20037;-35
2022/05/04 00:40:39;;;;;;;8.43;2.10;;;8.10;99.90;;;;;;5044843;28;20056;-35
2022/05/04 00:43:18;;;;;;;10.10;2.27;;;8.00;99.90;;;;;;5036730;28;20428;-35
2022/05/04 00:45:43;;;;;;;12.37;2.07;;;8.00;99.90;;;;;;5045366;28;20135;-35
2022/05/04 00:48:09;;;;;;;11.20;2.10;;;8.00;99.90;;;;;;5029599;28;20137;-35
2022/05/04 00:50:35;;;;;;;9.13;2.07;;;8.00;99.90;;;;;;5047123;28;20051;-35
2022/05/04 00:53:00;;;;;;;12.20;2.37;;;8.10;99.90;;;;;;5045237;28;20045;-35
2022/05/04 00:55:26;;;;;;;8.23;2.07;;;8.00;99.90;;;;;;5046502;28;20056;-35
2022/05/04 01:00:37;;;;;;;15.13;2.60;;;8.00;99.90;;;;;;5039802;28;20609;-35
2022/05/04 01:03:03;;;;;;;10.57;2.53;;;8.00;99.90;;;;;;5044224;28;20439;-35
2022/05/04 01:05:29;;;;;;;7.80;2.43;;;8.20;99.90;;;;;;5035082;28;20087;-35
2022/05/04 01:07:54;;;;;;;8.83;2.37;;;8.00;99.90;;;;;;5019627;28;20481;-35
2022/05/04 01:10:20;;;;;;;13.37;2.30;;;8.00;99.90;;;;;;5038612;28;20120;-35
2022/05/04 01:12:52;;;;;;;8.30;2.23;;;7.90;99.90;;;;;;5044319;28;20061;-35
2022/05/04 01:15:19;;;;;;;9.80;2.10;;;7.90;99.90;;;;;;5046200;28;20411;-35
2022/05/04 01:17:45;;;;;;;6.90;2.40;;;8.00;99.90;;;;;;5028443;28;20508;-35
2022/05/04 01:20:12;;;;;;;10.80;2.10;;;8.00;99.90;;;;;;5044892;28;20053;-35
2022/05/04 01:22:38;;;;;;;8.67;2.40;;;7.90;99.90;;;;;;5043175;28;20094;-35
2022/05/04 01:25:05;;;;;;;12.97;2.70;;;8.00;99.90;;;;;;5041393;28;20045;-35
2022/05/04 01:27:31;;;;;;;13.47;3.10;;;7.90;99.90;;;;;;5029416;28;20041;-35
2022/05/04 01:29:56;;;;;;;10.67;2.63;;;8.00;99.90;;;;;;5044818;28;20416;-35
2022/05/04 01:32:22;;;;;;;11.20;2.10;;;8.00;99.90;;;;;;5041147;28;20045;-35
2022/05/04 01:34:48;;;;;;;7.20;2.20;;;7.90;99.90;;;;;;5043846;28;20483;-35
2022/05/04 01:37:14;;;;;;;13.70;2.43;;;8.00;99.90;;;;;;5031732;28;20041;-35
2022/05/04 01:39:39;;;;;;;10.53;2.23;;;8.00;99.90;;;;;;5049291;28;20143;-35
2022/05/04 01:42:06;;;;;;;11.03;2.90;;;8.00;99.90;;;;;;5049395;28;20075;-35
2022/05/04 01:44:35;;;;;;;10.00;2.50;;;7.90;99.90;;;;;;5049243;28;20241;-35
2022/05/04 01:47:01;;;;;;;8.07;2.73;;;8.00;99.90;;;;;;5034744;28;20041;-35
2022/05/04 01:49:27;;;;;;;11.77;2.47;;;7.90;99.90;;;;;;5048668;28;20047;-35
2022/05/04 01:51:53;;;;;;;9.20;2.40;;;7.90;99.90;;;;;;5049006;28;20145;-35
2022/05/04 01:54:19;;;;;;;12.97;2.87;;;7.90;99.90;;;;;;5049123;28;20076;-35
2022/05/04 01:56:45;;;;;;;15.33;2.97;;;7.90;99.90;;;;;;5035571;28;20144;-35
2022/05/04 01:59:10;;;;;;;13.20;2.47;;;8.10;99.90;;;;;;5048495;28;20036;-35
2022/05/04 02:01:39;;;;;;;9.80;2.43;;;8.00;99.90;;;;;;5046379;28;20053;-35
2022/05/04 02:04:05;;;;;;;10.73;2.30;;;7.90;99.90;;;;;;5038393;28;20099;-35
2022/05/04 02:06:32;;;;;;;8.90;2.97;;;7.80;99.90;;;;;;5029020;28;20530;-35
2022/05/04 02:08:58;;;;;;;12.43;2.43;;;7.90;99.90;;;;;;5036748;28;20075;-35
2022/05/04 02:11:24;;;;;;;9.60;2.43;;;7.90;99.90;;;;;;5052078;28;20049;-35
2022/05/04 02:13:50;;;;;;;12.07;2.77;;;8.10;99.90;;;;;;5037942;28;20466;-35
2022/05/04 02:16:16;;;;;;;13.00;2.50;;;7.90;99.90;;;;;;5038483;28;20447;-35
2022/05/04 02:18:43;;;;;;;10.57;2.67;;;7.90;99.90;;;;;;5039228;28;20080;-35
2022/05/04 02:21:09;;;;;;;11.87;2.83;;;7.90;99.90;;;;;;5048914;28;20041;-35
2022/05/04 02:23:35;;;;;;;14.57;2.53;;;7.90;99.90;;;;;;5048027;28;20053;-35
2022/05/04 02:26:01;;;;;;;9.37;2.17;;;7.90;99.90;;;;;;5048933;28;20439;-35
2022/05/04 02:28:27;;;;;;;9.93;1.90;;;7.90;99.90;;;;;;5027011;28;20278;-35
2022/05/04 02:30:53;;;;;;;10.93;2.20;;;7.90;99.90;;;;;;5046385;28;20041;-35
2022/05/04 02:33:18;;;;;;;11.47;2.10;;;7.80;99.90;;;;;;5048001;28;20048;-35
2022/05/04 02:38:28;;;;;;;12.33;2.30;;;7.90;99.90;;;;;;5033021;28;20045;-35
2022/05/04 02:40:54;;;;;;;11.60;2.53;;;7.90;99.90;;;;;;5047722;28;20045;-35
2022/05/04 02:43:19;;;;;;;7.70;2.43;;;7.80;99.90;;;;;;5047901;28;20072;-35
2022/05/04 02:45:45;;;;;;;10.50;2.40;;;7.90;99.90;;;;;;5047440;28;20057;-35
2022/05/04 02:48:11;;;;;;;8.63;2.60;;;7.90;99.90;;;;;;5032723;28;20371;-35
2022/05/04 02:50:37;;;;;;;9.73;2.47;;;7.80;99.90;;;;;;5040583;28;20045;-35
2022/05/04 02:53:04;;;;;;;9.97;2.70;;;7.90;99.90;;;;;;5047233;28;20045;-35
2022/05/04 02:55:31;;;;;;;9.07;2.40;;;7.90;99.90;;;;;;5035124;28;20044;-35
2022/05/04 02:57:56;;;;;;;9.50;2.30;;;7.90;99.90;;;;;;5031284;28;20399;-35
2022/05/04 03:00:22;;;;;;;9.63;2.50;;;7.80;99.90;;;;;;5047202;28;20052;-35
2022/05/04 03:02:48;;;;;;;13.03;2.57;;;7.80;99.90;;;;;;5047590;28;20063;-35
2022/05/04 03:05:15;;;;;;;9.47;2.10;;;7.80;99.90;;;;;;5041420;28;20048;-35
2022/05/04 03:07:41;;;;;;;6.70;2.10;;;7.80;99.90;;;;;;5018965;28;20045;-35
2022/05/04 03:10:07;;;;;;;7.40;2.27;;;7.80;99.90;;;;;;5047679;28;20056;-35
2022/05/04 03:12:33;;;;;;;6.30;1.80;;;7.80;99.90;;;;;;5038447;28;20037;-35
2022/05/04 03:14:59;;;;;;;7.77;2.00;;;7.80;99.90;;;;;;5047899;28;20569;-35
2022/05/04 03:17:25;;;;;;;10.30;2.40;;;7.80;99.90;;;;;;5032225;28;20047;-35
2022/05/04 03:19:51;;;;;;;12.03;2.57;;;7.80;99.90;;;;;;5047269;28;20484;-35
2022/05/04 03:22:17;;;;;;;9.33;2.70;;;7.80;99.90;;;;;;5046220;28;20048;-35
2022/05/04 03:24:43;;;;;;;7.87;2.50;;;7.80;99.90;;;;;;5036493;28;20500;-35
2022/05/04 03:27:10;;;;;;;10.37;2.47;;;7.80;99.90;;;;;;5032340;28;20043;-35
2022/05/04 03:29:36;;;;;;;7.43;1.83;;;7.70;99.90;;;;;;5047350;28;20496;-35
2022/05/04 03:32:03;;;;;;;8.87;2.10;;;7.80;99.90;;;;;;5046921;28;20056;-35
2022/05/04 03:34:29;;;;;;;8.73;2.57;;;7.80;99.90;;;;;;5037205;28;20045;-35
2022/05/04 03:36:55;;;;;;;8.83;1.80;;;7.80;99.90;;;;;;5030764;28;20087;-35
2022/05/04 03:39:20;;;;;;;7.87;2.20;;;7.80;99.90;;;;;;5039966;28;20454;-35
2022/05/04 03:41:46;;;;;;;12.37;2.40;;;7.80;99.90;;;;;;5047438;28;20049;-35
2022/05/04 03:44:12;;;;;;;10.17;1.90;;;7.70;99.90;;;;;;5046633;28;20045;-35
2022/05/04 03:46:55;;;;;;;11.57;2.40;;;7.80;99.90;;;;;;5032947;28;20090;-35
2022/05/04 03:49:22;;;;;;;6.97;2.60;;;7.70;99.90;;;;;;5046705;28;20047;-35
2022/05/04 03:51:49;;;;;;;9.20;2.20;;;7.70;99.90;;;;;;5046690;28;20057;-35
2022/05/04 03:54:15;;;;;;;10.03;2.53;;;7.70;99.90;;;;;;5046285;28;20296;-35
2022/05/04 03:56:41;;;;;;;8.87;2.80;;;7.70;99.90;;;;;;5033433;28;20075;-35
2022/05/04 03:59:07;;;;;;;10.83;2.47;;;7.80;99.90;;;;;;5039149;28;20478;-38
2022/05/04 04:01:33;;;;;;;9.63;2.10;;;7.70;99.90;;;;;;5043321;28;20094;-34
2022/05/04 04:03:59;;;;;;;11.47;2.70;;;7.80;99.90;;;;;;5038229;28;20068;-34
2022/05/04 04:06:26;;;;;;;7.63;1.90;;;7.80;99.90;;;;;;5032203;28;20661;-34
2022/05/04 04:08:52;;;;;;;11.50;2.57;;;7.70;99.90;;;;;;5031705;28;20055;-34
2022/05/04 04:11:18;;;;;;;11.20;2.20;;;7.70;99.90;;;;;;5046581;28;20045;-34
2022/05/04 04:13:44;;;;;;;9.63;2.47;;;7.80;99.90;;;;;;5046064;28;20045;-34
2022/05/04 04:16:10;;;;;;;7.77;1.93;;;7.70;99.90;;;;;;5037557;28;20043;-35
2022/05/04 04:18:36;;;;;;;8.27;2.50;;;7.70;99.90;;;;;;5037322;28;20099;-34
2022/05/04 04:23:47;;;;;;;10.30;2.23;;;7.70;99.90;;;;;;5045698;28;20102;-34
2022/05/04 04:26:12;;;;;;;10.27;2.50;;;7.70;99.90;;;;;;5037033;28;20044;-35
2022/05/04 04:28:39;;;;;;;11.03;2.57;;;7.70;99.90;;;;;;5039675;28;20141;-34
2022/05/04 04:31:08;;;;;;;9.93;2.73;;;7.80;99.90;;;;;;5046733;28;20049;-34
2022/05/04 04:33:35;;;;;;;10.87;2.50;;;7.80;99.90;;;;;;5045485;28;20041;-34
2022/05/04 04:36:01;;;;;;;8.97;2.60;;;7.80;99.90;;;;;;5045199;28;20135;-34
2022/05/04 04:38:28;;;;;;;8.17;2.20;;;7.80;99.90;;;;;;5032597;28;20068;-34
2022/05/04 04:40:54;;;;;;;11.83;2.23;;;7.80;99.90;;;;;;5039851;28;20137;-34
2022/05/04 04:43:20;;;;;;;10.80;2.43;;;7.80;99.90;;;;;;5044314;28;20127;-34
2022/05/04 04:45:49;;;;;;;10.60;2.93;;;7.90;99.90;;;;;;5046094;28;20689;-34
2022/05/04 04:48:16;;;;;;;12.40;2.60;;;7.80;99.90;;;;;;5029891;28;20497;-34
2022/05/04 04:50:46;;;;;;;9.80;2.63;;;7.90;99.90;;;;;;5046192;28;20041;-34
2022/05/04 04:53:12;;;;;;;8.03;2.40;;;7.80;99.90;;;;;;5045861;28;20680;-34
2022/05/04 04:55:41;;;;;;;10.17;2.90;;;7.80;99.90;;;;;;5046004;28;20518;-34
2022/05/04 04:58:07;;;;;;;9.67;2.40;;;7.90;99.90;;;;;;5005432;28;20041;-34
2022/05/04 05:00:32;;;;;;;9.10;2.50;;;7.80;99.90;;;;;;5030354;28;20041;-34
2022/05/04 05:02:58;;;;;;;6.70;2.47;;;7.90;99.90;;;;;;5027285;28;20133;-34
2022/05/04 05:05:24;;;;;;;11.27;2.17;;;7.90;99.90;;;;;;5036270;28;20045;-35
2022/05/04 05:07:49;;;;;;;8.47;2.43;;;7.90;99.90;;;;;;5018938;28;20081;-34
2022/05/04 05:10:15;;;;;;;8.27;2.03;;;7.90;99.90;;;;;;5041684;28;20087;-34
2022/05/04 05:12:41;;;;;;;11.23;2.20;;;7.90;99.90;;;;;;5049421;28;20099;-34
2022/05/04 05:17:51;;;;;;;6.40;2.10;;;7.90;99.90;;;;;;5034014;28;20083;-34
2022/05/04 05:20:18;;;;;;;8.70;2.43;;;7.90;99.90;;;;;;5048751;28;20088;-34
2022/05/04 05:22:43;;;;;;;11.37;2.70;;;8.10;99.90;;;;;;5046824;28;20049;-34
2022/05/04 05:25:09;;;;;;;9.83;2.50;;;8.00;99.90;;;;;;5048953;28;20102;-34
2022/05/04 05:27:35;;;;;;;10.80;2.40;;;8.00;99.90;;;;;;5034210;28;20067;-34
2022/05/04 05:30:01;;;;;;;8.27;2.40;;;8.00;99.90;;;;;;5047678;28;20053;-35
2022/05/04 05:32:27;;;;;;;8.20;2.53;;;8.00;99.90;;;;;;5043280;28;20044;-34
2022/05/04 05:34:52;;;;;;;8.70;2.70;;;8.00;99.90;;;;;;5049347;28;20049;-34
2022/05/04 05:37:20;;;;;;;9.70;2.20;;;8.00;99.90;;;;;;5035063;28;20387;-34
2022/05/04 05:39:46;;;;;;;8.73;2.53;;;8.00;99.90;;;;;;5049136;28;20057;-34
2022/05/04 05:42:12;;;;;;;10.37;2.77;;;8.10;99.90;;;;;;5048975;28;20479;-34
2022/05/04 05:44:38;;;;;;;8.67;2.50;;;8.10;99.90;;;;;;5048213;28;20057;-35
2022/05/04 05:47:04;;;;;;;7.73;2.10;;;8.10;99.90;;;;;;5031320;28;20064;-37
2022/05/04 05:49:30;;;;;;;10.50;2.90;;;8.10;99.90;;;;;;5049347;28;20159;-35
2022/05/04 05:51:56;;;;;;;7.30;2.40;;;8.10;99.90;;;;;;5049688;28;20658;-34
2022/05/04 05:54:22;;;;;;;9.37;2.37;;;8.20;99.90;;;;;;5048854;28;20049;-34
2022/05/04 05:56:47;;;;;;;9.10;2.17;;;8.20;99.90;;;;;;5033931;28;20049;-35
2022/05/04 05:59:13;;;;;;;9.00;2.40;;;8.20;99.90;;;;;;5047670;28;20048;-34
2022/05/04 06:01:39;;;;;;;12.70;2.27;;;8.20;99.90;;;;;;5046196;28;20052;-35
2022/05/04 06:04:08;;;;;;;8.70;2.30;;;8.40;99.90;;;;;;5047109;28;20397;-34
2022/05/04 06:06:33;;;;;;;13.10;2.50;;;8.30;99.90;;;;;;5033771;28;20483;-35
2022/05/04 06:08:59;;;;;;;11.10;2.40;;;8.30;99.90;;;;;;5036916;28;20049;-34
2022/05/04 06:11:25;;;;;;;8.60;3.00;;;8.30;99.90;;;;;;5044014;28;20439;-34
2022/05/04 06:13:52;;;;;;;8.80;2.43;;;8.40;99.90;;;;;;5048362;28;20376;-34
2022/05/04 06:16:17;;;;;;;8.37;2.63;;;8.40;99.90;;;;;;5032541;28;20037;-35
2022/05/04 06:18:43;;;;;;;10.07;2.73;;;8.40;99.90;;;;;;5041872;28;20518;-35
2022/05/04 06:21:08;;;;;;;10.57;2.60;;;8.40;99.90;;;;;;5046563;28;20516;-35
2022/05/04 06:23:34;;;;;;;9.70;2.57;;;8.40;99.90;;;;;;5059021;28;20140;-35
2022/05/04 06:26:00;;;;;;;9.37;2.47;;;8.50;99.90;;;;;;5050195;28;20512;-35
2022/05/04 06:28:25;;;;;;;13.57;2.53;;;8.50;99.90;;;;;;5031609;28;20080;-35
2022/05/04 06:36:19;;;;;;;6.53;2.03;;;8.60;99.90;;;;;;5034624;28;20471;-36
2022/05/04 06:38:45;;;;;;;9.63;2.17;;;8.50;99.90;;;;;;5042931;28;20107;-35
2022/05/04 06:41:10;;;;;;;7.47;2.00;;;8.60;99.90;;;;;;5048078;28;20172;-35
2022/05/04 06:43:36;;;;;;;7.77;2.43;;;8.60;99.90;;;;;;5046866;28;20080;-35
2022/05/04 06:46:02;;;;;;;9.00;2.00;;;8.60;99.90;;;;;;5062673;28;20048;-35
2022/05/04 06:48:27;;;;;;;7.33;2.57;;;8.60;99.90;;;;;;5034825;28;20068;-34
2022/05/04 06:50:53;;;;;;;8.97;2.03;;;8.60;99.90;;;;;;5051161;28;20044;-35
2022/05/04 06:53:19;;;;;;;7.47;2.47;;;8.70;99.90;;;;;;5049975;28;20385;-35
2022/05/04 06:55:44;;;;;;;13.97;2.43;;;8.70;99.90;;;;;;5049771;28;20052;-35
2022/05/04 06:58:10;;;;;;;10.50;2.00;;;8.80;99.90;;;;;;5034376;28;20040;-35
2022/05/04 07:00:36;;;;;;;5.03;2.00;;;8.80;99.90;;;;;;5050854;28;20052;-35
2022/05/04 07:03:01;;;;;;;9.70;2.50;;;8.80;99.90;;;;;;5049474;28;20052;-35
2022/05/04 07:05:27;;;;;;;8.63;2.03;;;8.90;99.90;;;;;;5039742;28;20040;-35
2022/05/04 07:07:53;;;;;;;10.30;2.13;;;8.90;99.90;;;;;;5032383;28;20052;-35
2022/05/04 07:10:19;;;;;;;13.60;2.53;;;8.90;99.90;;;;;;5040383;28;20042;-35
2022/05/04 07:12:45;;;;;;;12.23;2.17;;;9.00;99.90;;;;;;5042918;28;20052;-35
2022/05/04 07:15:11;;;;;;;7.07;2.10;;;9.10;99.90;;;;;;5030515;28;20059;-35
2022/05/04 07:17:36;;;;;;;10.37;2.17;;;9.10;99.90;;;;;;5032850;28;20055;-35
2022/05/04 07:20:03;;;;;;;7.20;2.17;;;9.10;99.90;;;;;;5046640;28;20053;-35
2022/05/04 07:22:28;;;;;;;5.57;2.17;;;9.20;99.90;;;;;;5049023;28;20103;-35
2022/05/04 07:24:54;;;;;;;8.27;1.83;;;9.30;99.90;;;;;;5046155;28;20052;-35
2022/05/04 07:27:20;;;;;;;10.10;3.73;;;9.30;99.90;;;;;;5031608;28;20056;-35
2022/05/04 07:29:46;;;;;;;10.73;3.27;;;9.30;99.90;;;;;;5048988;28;20044;-35
2022/05/04 07:32:13;;;;;;;9.20;2.00;;;9.40;99.90;;;;;;5049352;28;20122;-36
2022/05/04 07:34:40;;;;;;;8.90;2.10;;;9.40;99.90;;;;;;5052105;28;20403;-35
2022/05/04 07:37:06;;;;;;;9.10;1.97;;;9.40;99.90;;;;;;5035772;28;20044;-35
2022/05/04 07:42:27;;;;;;;7.80;2.10;;;9.50;99.90;;;;;;5048163;28;20471;-35
2022/05/04 07:45:04;;;;;;;8.63;2.00;;;9.60;99.90;;;;;;5049758;28;20041;-35
2022/05/04 07:47:32;;;;;;;8.07;2.20;;;9.50;99.90;;;;;;5034670;28;20037;-35
2022/05/04 07:49:58;;;;;;;10.77;2.60;;;9.50;99.90;;;;;;5048673;28;20577;-35
2022/05/04 07:52:25;;;;;;;11.60;2.20;;;9.50;99.90;;;;;;5051064;28;20468;-35
2022/05/04 07:54:51;;;;;;;10.17;1.93;;;9.50;99.90;;;;;;5048641;28;20533;-35
2022/05/04 07:57:18;;;;;;;14.10;2.37;;;9.60;99.90;;;;;;5035038;28;20049;-35
2022/05/04 08:04:16;;;;;;;11.00;2.40;;;9.70;99.90;;;;;;5051336;28;20094;-36
2022/05/04 08:05:13;;;;;;;6.50;1.93;;;9.70;99.90;;;;;;5051231;28;20044;-35
2022/05/04 08:07:39;;;;;;;6.20;1.80;;;9.70;99.90;;;;;;5049276;28;20041;-35
2022/05/04 08:10:05;;;;;;;12.13;2.43;;;9.70;99.90;;;;;;5044923;28;20052;-36
2022/05/04 08:12:33;;;;;;;9.37;1.77;;;9.70;99.90;;;;;;5047928;28;20069;-36
2022/05/04 08:14:59;;;;;;;8.17;1.97;;;9.70;99.90;;;;;;5050178;28;20049;-36
2022/05/04 08:17:25;;;;;;;9.70;2.43;;;9.80;99.90;;;;;;5034546;28;20625;-36
2022/05/04 08:19:51;;;;;;;7.20;2.13;;;9.80;99.90;;;;;;5049834;28;20583;-36
2022/05/04 08:22:17;;;;;;;14.20;2.40;;;10.00;99.90;;;;;;5049322;28;20084;-36
2022/05/04 08:24:43;;;;;;;9.57;1.63;;;9.90;99.90;;;;;;5044756;28;20459;-36
2022/05/04 08:27:09;;;;;;;5.13;1.87;;;9.90;99.90;;;;;;5029853;28;20045;-36
2022/05/04 08:29:35;;;;;;;6.93;1.80;;;10.00;99.90;;;;;;5045784;28;20052;-36
2022/05/04 08:32:00;;;;;;;8.47;1.97;;;10.00;99.90;;;;;;5050925;28;20041;-36
2022/05/04 08:34:26;;;;;;;9.73;2.07;;;10.00;99.90;;;;;;5052231;28;20420;-36
2022/05/04 08:36:52;;;;;;;12.83;2.10;;;9.90;99.90;;;;;;5030925;28;20043;-36
2022/05/04 08:39:18;;;;;;;11.43;2.37;;;10.10;99.90;;;;;;5050729;28;20492;-36
2022/05/04 08:41:44;;;;;;;7.15;1.77;;;10.20;99.90;;;;;;5048158;28;20041;-36
2022/05/04 08:44:11;;;;;;;9.63;2.30;;;10.20;99.90;;;;;;5044907;28;20056;-36
2022/05/04 08:46:44;;;;;;;8.23;2.33;;;10.30;99.90;;;;;;5032016;28;20106;-36
2022/05/04 08:49:12;;;;;;;8.13;1.93;;;10.40;99.90;;;;;;5046627;28;20511;-36
2022/05/04 08:51:39;;;;;;;9.55;2.08;;;10.40;99.90;;;;;;5047590;28;20037;-36
2022/05/04 08:54:06;;;;;;;6.50;2.00;;;10.40;99.90;;;;;;5045970;28;20048;-36
2022/05/04 08:56:33;;;;;;;10.27;2.25;;;10.40;99.90;;;;;;5030238;28;20040;-36
2022/05/04 08:59:02;;;;;;;10.30;2.30;;;10.30;99.90;;;;;;5044646;28;20049;-36
2022/05/04 09:01:28;;;;;;;11.40;2.38;;;10.30;99.90;;;;;;5047490;28;20041;-36
2022/05/04 09:03:54;;;;;;;7.90;1.77;;;10.30;99.90;;;;;;5046341;28;20633;-35
2022/05/04 09:06:28;;;;;;;7.97;1.80;;;10.30;99.90;;;;;;5033869;28;20045;-35
2022/05/04 09:08:56;;;;;;;6.43;1.50;;;10.30;99.90;;;;;;5041530;28;20496;-35
2022/05/04 09:11:23;;;;;;;7.65;2.25;;;10.40;99.90;;;;;;5046266;28;20056;-35
2022/05/04 09:13:50;;;;;;;6.97;1.85;;;10.50;99.90;;;;;;5044908;28;20123;-35
2022/05/04 09:16:32;;;;;;;5.43;1.60;;;10.50;99.90;;;;;;5035583;28;20045;-36
2022/05/04 09:19:04;;;;;;;4.90;1.73;;;10.60;99.90;;;;;;5043149;28;20041;-34
2022/05/04 09:21:30;;;;;;;9.48;1.85;;;10.70;99.90;;;;;;5044709;28;20124;-35
2022/05/04 09:23:56;;;;;;;6.50;1.85;;;10.80;99.90;;;;;;5046219;28;20397;-35
2022/05/04 09:26:22;;;;;;;8.40;1.80;;;10.80;99.90;;;;;;5033521;28;20049;-35
2022/05/04 09:28:56;;;;;;;8.02;1.90;;;10.80;99.90;;;;;;5042849;28;20048;-35
2022/05/04 09:31:26;;;;;;;7.88;2.10;;;10.90;99.90;;;;;;5044921;28;20234;-35
2022/05/04 09:34:03;;;;;;;7.55;1.80;;;11.10;99.90;;;;;;5046238;28;20053;-35
2022/05/04 09:45:14;;;;;;;6.65;1.70;;;11.20;99.90;;;;;;5045362;28;20092;-35
2022/05/04 09:47:46;;;;;;;10.70;1.80;;;11.30;99.90;;;;;;5028649;28;20510;-35
2022/05/04 09:50:14;;;;;;;5.93;1.95;;;11.40;99.90;;;;;;5049032;28;20044;-35
2022/05/04 09:52:42;;;;;;;7.82;2.00;;;11.50;99.90;;;;;;5047174;28;20045;-35
2022/05/04 09:55:19;;;;;;;9.88;2.20;;;11.50;99.90;;;;;;5048789;28;20060;-35
2022/05/04 09:57:47;;;;;;;11.30;2.28;;;11.60;99.90;;;;;;5031822;28;20047;-35
2022/05/04 10:00:14;;;;;;;7.47;2.00;;;11.60;99.90;;;;;;5051351;28;20087;-35
2022/05/04 10:02:44;;;;;;;6.55;2.13;;;11.70;99.90;;;;;;5048534;28;20029;-35
2022/05/04 10:05:10;;;;;;;13.07;2.35;;;11.70;99.90;;;;;;5048447;28;20052;-35
2022/05/04 10:07:37;;;;;;;7.18;1.75;;;11.80;99.90;;;;;;5033304;28;20090;-35
2022/05/04 10:10:07;;;;;;;6.80;2.20;;;11.80;99.90;;;;;;5052832;28;20365;-35
2022/05/04 10:12:38;;;;;;;6.18;1.75;;;11.80;99.90;;;;;;5051854;28;20029;-35
2022/05/04 10:15:10;;;;;;;9.93;2.35;;;11.90;99.90;;;;;;5052286;28;20136;-35
2022/05/04 10:17:57;;;;;;;9.65;2.00;;;11.90;99.90;;;;;;5038369;28;20071;-35
2022/05/04 10:20:32;;;;;;;7.82;2.17;;;12.00;99.90;;;;;;5054978;28;20063;-35
2022/05/04 10:23:01;;;;;;;9.45;2.65;;;12.10;99.90;;;;;;5053150;28;20044;-35
2022/05/04 10:25:32;;;;;;;8.52;2.08;;;12.10;99.90;;;;;;5049243;28;20579;-35
2022/05/04 10:28:12;;;;;;;5.65;1.58;;;12.20;99.90;;;;;;5037253;28;20069;-35
2022/05/04 10:30:55;;;;;;;7.60;2.28;;;12.20;99.90;;;;;;5051500;28;20087;-35
2022/05/04 10:33:43;;;;;;;10.02;2.42;;;12.30;99.90;;;;;;5051967;28;20488;-35
2022/05/04 10:36:17;;;;;;;5.93;2.15;;;12.30;99.90;;;;;;5045678;28;20758;-36
2022/05/04 10:38:44;;;;;;;8.80;1.98;;;12.30;99.90;;;;;;5046306;28;20048;-37
2022/05/04 10:41:11;;;;;;;8.15;2.72;;;12.50;99.90;;;;;;5054433;28;20036;-35
2022/05/04 10:43:50;;;;;;;9.50;2.50;;;12.40;99.90;;;;;;5051225;28;20056;-35
2022/05/04 10:46:21;;;;;;;10.25;2.20;;;12.40;99.90;;;;;;5040149;28;20396;-36
2022/05/04 10:49:03;;;;;;;9.02;2.22;;;12.30;99.90;;;;;;5041918;28;20057;-35
2022/05/04 10:51:37;;;;;;;6.68;2.08;;;12.40;99.90;;;;;;5046194;28;20055;-35
2022/05/04 10:54:10;;;;;;;9.32;2.38;;;12.40;99.90;;;;;;5046170;28;20045;-35
2022/05/04 10:56:40;;;;;;;7.90;2.13;;;12.40;99.90;;;;;;5034924;28;20531;-36
2022/05/04 10:59:06;;;;;;;5.95;2.15;;;12.40;99.90;;;;;;5045291;28;20043;-35
2022/05/04 11:01:36;;;;;;;11.70;2.30;;;12.50;99.90;;;;;;5051695;28;20410;-35
2022/05/04 11:04:04;;;;;;;8.18;2.50;;;12.50;99.90;;;;;;5043320;28;20079;-35
2022/05/04 11:06:35;;;;;;;7.28;1.95;;;12.50;99.90;;;;;;5034696;28;20044;-35
2022/05/04 11:09:15;;;;;;;7.13;2.22;;;12.50;99.90;;;;;;5044702;28;20081;-35
2022/05/04 11:11:51;;;;;;;9.60;2.33;;;12.50;99.90;;;;;;5047708;28;20044;-35
2022/05/04 11:14:22;;;;;;;9.07;2.15;;;12.50;99.90;;;;;;5047362;28;20492;-35
2022/05/04 11:16:50;;;;;;;9.65;2.58;;;12.60;99.90;;;;;;5028295;28;20496;-36
2022/05/04 11:19:16;;;;;;;7.15;2.08;;;12.50;99.90;;;;;;5047907;28;20041;-35
2022/05/04 11:21:43;;;;;;;9.88;2.50;;;12.60;99.90;;;;;;5047914;28;20352;-35
2022/05/04 11:24:14;;;;;;;7.38;1.77;;;12.60;99.90;;;;;;5048074;28;20403;-35
2022/05/04 11:26:48;;;;;;;9.27;2.20;;;12.70;99.90;;;;;;5033438;28;20199;-35
2022/05/04 11:29:15;;;;;;;7.85;1.92;;;12.60;99.90;;;;;;5045750;28;20507;-35
2022/05/04 11:32:03;;;;;;;5.32;1.60;;;12.70;99.90;;;;;;5047467;28;20144;-35
2022/05/04 11:34:36;;;;;;;5.28;1.80;;;12.70;99.90;;;;;;5045917;28;20048;-36
2022/05/04 11:37:05;;;;;;;9.35;2.10;;;12.70;99.90;;;;;;5032880;28;20132;-36
2022/05/04 11:39:31;;;;;;;7.40;2.10;;;12.80;99.90;;;;;;5045680;28;20511;-35
2022/05/04 11:41:59;;;;;;;5.63;1.95;;;12.90;99.90;;;;;;5043345;28;20135;-35
2022/05/04 11:44:26;;;;;;;6.60;1.70;;;13.00;99.90;;;;;;5045789;28;20036;-35
2022/05/04 11:46:53;;;;;;;7.35;2.25;;;13.10;99.90;;;;;;5031573;28;20064;-35
2022/05/04 11:49:21;;;;;;;7.82;2.33;;;13.20;99.90;;;;;;5025793;28;20051;-35
2022/05/04 11:51:47;;;;;;;10.02;2.67;;;13.30;99.90;;;;;;5046503;28;20072;-35
2022/05/04 11:54:13;;;;;;;8.13;2.17;;;13.40;99.90;;;;;;5045842;28;20098;-35
2022/05/04 11:56:39;;;;;;;8.82;1.83;;;13.40;99.90;;;;;;5033387;28;20046;-36
2022/05/04 11:59:07;;;;;;;8.73;2.35;;;13.50;99.90;;;;;;5047636;28;20199;-36
2022/05/04 12:01:33;;;;;;;9.73;2.15;;;13.60;99.90;;;;;;5045858;28;20041;-36
2022/05/04 12:04:00;;;;;;;10.80;2.75;;;13.60;99.90;;;;;;5046330;28;20053;-35
2022/05/04 12:06:26;;;;;;;8.30;2.55;;;13.60;99.90;;;;;;5008933;28;20574;-36
2022/05/04 12:08:54;;;;;;;5.35;2.20;;;13.70;99.90;;;;;;5019041;28;20191;-36
2022/05/04 12:11:20;;;;;;;7.13;1.90;;;13.70;99.90;;;;;;5020749;28;20045;-36
2022/05/04 12:13:47;;;;;;;8.90;2.08;;;13.70;99.90;;;;;;5016225;28;20053;-36
2022/05/04 12:16:13;;;;;;;9.07;2.92;;;13.80;99.90;;;;;;5007790;28;20106;-37
2022/05/04 12:18:39;;;;;;;8.50;2.17;;;13.70;99.90;;;;;;5015626;28;20048;-35
2022/05/04 12:21:08;;;;;;;7.85;2.33;;;13.70;99.90;;;;;;5012625;28;20041;-35
2022/05/04 12:23:35;;;;;;;6.22;2.20;;;13.80;99.90;;;;;;5010209;28;20607;-36
2022/05/04 12:26:01;;;;;;;9.93;2.35;;;13.80;99.90;;;;;;5018197;28;20433;-36
2022/05/04 12:28:27;;;;;;;8.35;2.50;;;13.90;99.90;;;;;;4999441;28;20045;-35
2022/05/04 12:33:38;;;;;;;10.88;2.33;;;14.00;99.90;;;;;;5013746;28;20304;-36
2022/05/04 12:36:07;;;;;;;6.35;2.00;;;14.20;99.90;;;;;;5008116;28;20061;-35
2022/05/04 12:38:37;;;;;;;10.18;2.10;;;14.30;99.90;;;;;;5010214;28;20064;-36
2022/05/04 12:41:05;;;;;;;6.45;2.38;;;14.40;99.90;;;;;;5016411;28;20081;-36
2022/05/04 12:43:34;;;;;;;8.65;2.30;;;14.50;99.90;;;;;;5016746;28;20042;-35
2022/05/04 12:46:00;;;;;;;8.32;2.55;;;14.60;99.90;;;;;;5010894;28;20523;-36
2022/05/04 12:48:26;;;;;;;5.85;2.25;;;14.60;99.90;;;;;;5004903;28;20049;-36
2022/05/04 12:50:56;;;;;;;7.13;1.98;;;14.70;99.90;;;;;;5015999;28;20110;-36
2022/05/04 12:53:26;;;;;;;10.75;2.42;;;14.80;99.90;;;;;;5009063;28;20046;-36
2022/05/04 12:58:38;;;;;;;5.93;2.30;;;14.70;99.90;;;;;;5007881;28;20061;-36
2022/05/04 13:01:04;;;;;;;10.00;2.00;;;14.60;99.90;;;;;;5011282;28;21340;-36
2022/05/04 13:03:33;;;;;;;6.68;2.55;;;14.60;99.90;;;;;;5014728;28;20052;-36
2022/05/04 13:05:59;;;;;;;7.97;2.00;;;14.60;99.90;;;;;;5002801;28;20053;-36
2022/05/04 13:08:26;;;;;;;8.07;2.05;;;14.70;99.90;;;;;;4996398;28;20057;-36
2022/05/04 13:10:52;;;;;;;12.35;2.30;;;14.70;99.90;;;;;;5013079;28;20068;-36
2022/05/04 13:13:19;;;;;;;7.32;2.10;;;14.80;99.90;;;;;;5018799;28;20144;-36
2022/05/04 13:15:51;;;;;;;7.88;2.40;;;14.70;99.90;;;;;;5014461;28;20059;-35
2022/05/04 13:18:17;;;;;;;9.05;2.17;;;14.70;99.90;;;;;;4996886;28;20048;-36
2022/05/04 13:20:44;;;;;;;8.93;2.45;;;14.60;99.90;;;;;;5020903;28;20640;-36
2022/05/04 13:23:09;;;;;;;8.73;2.35;;;14.60;99.90;;;;;;5014222;28;20584;-36
2022/05/04 13:25:35;;;;;;;5.15;2.00;;;14.80;99.90;;;;;;5017766;28;20057;-36
2022/05/04 13:28:02;;;;;;;5.57;2.00;;;15.00;99.90;;;;;;4979624;28;20060;-36